首页
METAR-TAF:

METAR-TAF

机场 :

Lannion, 法国

纬度: 48-45N, 经度: 003-28W, 海拔: 89米

当前天气观测

该预报发布于27分钟前的01:30 UTC
静风
温度 5°C
湿度 93%
气压 1008 hPa
能見度: 9000
散云层高于4900英尺
多云层高于6000英尺
阴天层高于16000英尺

METAR: LFRO 170130Z AUTO 00000KT 9000 SCT049 BKN060 OVC160 05/04 Q1008

时间: 02:57 (01:57 UTC)


TAF: 丢失

超过4000个机场的气象观测和天气预报(METAR&TAF报告)。

可查询的气象台以黄色和红色小点在地图上表示。

将鼠标移到小点上方,可查看气象台名称。

然后点击查看天气观测和预报。

如需切换地图:点击带黑十字的绿色按钮放大地图;点击带横线的绿色按钮缩小地图;或者点击绿色箭头查看邻近地区的地图。


METAR-TAF: